Time;durP1;ratioP1;P1;durP2;ratioP2;P2;SDS_P1;SDS_P2;PMS_P1;PMS_P2;Temp;Humidity;BMP_temperature;BMP_pressure;BME280_temperature;BME280_humidity;BME280_pressure;Samples;Min_cycle;Max_cycle;Signal;HPM_P1;HPM_P2
2021/05/03 00:01:53;;;;;;;9.02;5.13;;;;;;;;;;5079593;28;20024;-77
2021/05/03 00:04:19;;;;;;;6.40;5.43;;;;;;;;;;5070250;28;20021;-77
2021/05/03 00:06:45;;;;;;;4.88;4.38;;;;;;;;;;5055426;28;20054;-77
2021/05/03 00:09:11;;;;;;;4.30;3.90;;;;;;;;;;5054808;28;20056;-77
2021/05/03 00:11:37;;;;;;;5.22;3.85;;;;;;;;;;5054921;28;20052;-78
2021/05/03 00:14:03;;;;;;;5.15;4.65;;;;;;;;;;5054037;28;20093;-77
2021/05/03 00:16:29;;;;;;;4.18;3.78;;;;;;;;;;5056901;28;20128;-77
2021/05/03 00:18:56;;;;;;;6.32;4.40;;;;;;;;;;5070284;28;20029;-78
2021/05/03 00:21:22;;;;;;;9.98;5.43;;;;;;;;;;5069123;28;20052;-78
2021/05/03 00:23:48;;;;;;;4.20;3.80;;;;;;;;;;5060016;28;20036;-78
2021/05/03 00:26:14;;;;;;;4.82;4.13;;;;;;;;;;5068839;28;20093;-78
2021/05/03 00:28:41;;;;;;;3.92;3.53;;;;;;;;;;5060820;28;20056;-77
2021/05/03 00:31:07;;;;;;;4.43;4.03;;;;;;;;;;5059499;28;20050;-78
2021/05/03 00:33:33;;;;;;;6.68;4.47;;;;;;;;;;5058394;28;20124;-78
2021/05/03 00:35:59;;;;;;;4.78;3.97;;;;;;;;;;5059398;28;20023;-78
2021/05/03 00:38:26;;;;;;;5.28;4.57;;;;;;;;;;5059174;28;20035;-79
2021/05/03 00:40:52;;;;;;;4.55;4.00;;;;;;;;;;5056186;28;20036;-78
2021/05/03 00:43:20;;;;;;;3.80;3.50;;;;;;;;;;5055209;28;20036;-78
2021/05/03 00:45:47;;;;;;;6.88;4.68;;;;;;;;;;5054762;28;20029;-77
2021/05/03 00:48:13;;;;;;;6.22;5.45;;;;;;;;;;5053571;28;20037;-77
2021/05/03 00:50:40;;;;;;;6.15;5.05;;;;;;;;;;5052881;28;20106;-77
2021/05/03 00:53:06;;;;;;;5.25;4.75;;;;;;;;;;5052685;28;20396;-77
2021/05/03 00:55:32;;;;;;;5.97;5.22;;;;;;;;;;5062172;28;20304;-78
2021/05/03 00:57:59;;;;;;;5.90;5.05;;;;;;;;;;5071314;28;20025;-78
2021/05/03 01:00:26;;;;;;;5.72;5.13;;;;;;;;;;5078091;28;20020;-78
2021/05/03 01:02:53;;;;;;;6.97;5.50;;;;;;;;;;5083234;28;20028;-78
2021/05/03 01:05:19;;;;;;;5.70;4.95;;;;;;;;;;5073229;28;20033;-77
2021/05/03 01:07:46;;;;;;;6.65;5.47;;;;;;;;;;5060657;28;20032;-78
2021/05/03 01:10:12;;;;;;;7.40;5.65;;;;;;;;;;5059867;28;20485;-78
2021/05/03 01:12:39;;;;;;;5.72;5.07;;;;;;;;;;5054046;28;20021;-77
2021/05/03 01:15:06;;;;;;;5.65;4.50;;;;;;;;;;5053197;28;20023;-78
2021/05/03 01:17:33;;;;;;;5.00;4.50;;;;;;;;;;5053164;28;20066;-78
2021/05/03 01:20:05;;;;;;;7.05;5.15;;;;;;;;;;5054100;28;20017;-78
2021/05/03 01:22:35;;;;;;;6.65;5.75;;;;;;;;;;5053183;28;20024;-77
2021/05/03 01:25:01;;;;;;;6.60;6.00;;;;;;;;;;5061877;28;20111;-77
2021/05/03 01:27:27;;;;;;;8.23;6.28;;;;;;;;;;5066220;28;20030;-78
2021/05/03 01:29:54;;;;;;;6.05;5.32;;;;;;;;;;5077713;28;20085;-78
2021/05/03 01:32:20;;;;;;;8.15;6.35;;;;;;;;;;5073321;28;20497;-77
2021/05/03 01:34:46;;;;;;;5.22;4.72;;;;;;;;;;5058971;28;20033;-76
2021/05/03 01:37:15;;;;;;;6.63;5.82;;;;;;;;;;5053599;28;20443;-78
2021/05/03 01:39:42;;;;;;;9.52;7.10;;;;;;;;;;5054850;28;20029;-78
2021/05/03 01:42:08;;;;;;;7.82;6.55;;;;;;;;;;5054402;28;20153;-79
2021/05/03 01:44:34;;;;;;;6.80;6.10;;;;;;;;;;5054306;28;20043;-78
2021/05/03 01:47:01;;;;;;;8.75;7.43;;;;;;;;;;5054899;28;20032;-78
2021/05/03 01:49:27;;;;;;;9.20;6.55;;;;;;;;;;5054149;28;20033;-78
2021/05/03 01:51:53;;;;;;;6.25;5.15;;;;;;;;;;5054821;28;20032;-78
2021/05/03 01:54:19;;;;;;;6.38;5.75;;;;;;;;;;5059506;28;20024;-79
2021/05/03 01:56:46;;;;;;;7.70;6.13;;;;;;;;;;5067153;28;20423;-78
2021/05/03 01:59:12;;;;;;;8.38;6.82;;;;;;;;;;5055359;28;20397;-78
2021/05/03 02:01:39;;;;;;;8.10;6.80;;;;;;;;;;5054789;28;20029;-78
2021/05/03 02:04:06;;;;;;;9.98;6.35;;;;;;;;;;5054086;28;20037;-78
2021/05/03 02:06:33;;;;;;;7.25;6.18;;;;;;;;;;5055411;28;20043;-78
2021/05/03 02:08:59;;;;;;;9.98;7.10;;;;;;;;;;5053960;28;20417;-77
2021/05/03 02:11:25;;;;;;;8.05;6.20;;;;;;;;;;5053153;28;20028;-78
2021/05/03 02:13:51;;;;;;;7.47;6.43;;;;;;;;;;5052691;28;20029;-77
2021/05/03 02:16:17;;;;;;;9.35;8.00;;;;;;;;;;5052596;28;20056;-77
2021/05/03 02:18:43;;;;;;;9.10;7.05;;;;;;;;;;5053080;28;20033;-78
2021/05/03 02:21:09;;;;;;;8.40;6.72;;;;;;;;;;5052345;28;20021;-76
2021/05/03 02:23:35;;;;;;;7.50;6.13;;;;;;;;;;5048682;28;20110;-76
2021/05/03 02:26:01;;;;;;;8.18;6.28;;;;;;;;;;5057622;28;20051;-78
2021/05/03 02:28:27;;;;;;;8.45;7.13;;;;;;;;;;5079366;28;20037;-77
2021/05/03 02:30:53;;;;;;;9.52;7.95;;;;;;;;;;5091951;28;20116;-76
2021/05/03 02:33:19;;;;;;;9.70;6.82;;;;;;;;;;5072551;28;20069;-77
2021/05/03 02:35:46;;;;;;;10.25;8.63;;;;;;;;;;5078968;28;20057;-78
2021/05/03 02:38:12;;;;;;;10.18;8.10;;;;;;;;;;5073568;28;20037;-77
2021/05/03 02:40:38;;;;;;;9.02;7.38;;;;;;;;;;5066880;28;20027;-76
2021/05/03 02:43:05;;;;;;;9.18;7.38;;;;;;;;;;5056984;28;20021;-77
2021/05/03 02:45:31;;;;;;;11.27;9.32;;;;;;;;;;5065127;28;20029;-76
2021/05/03 02:47:58;;;;;;;11.13;9.02;;;;;;;;;;5066589;28;20033;-76
2021/05/03 02:50:24;;;;;;;12.27;8.38;;;;;;;;;;5070533;28;20037;-78
2021/05/03 02:52:51;;;;;;;12.48;9.60;;;;;;;;;;5076687;28;20156;-76
2021/05/03 02:55:18;;;;;;;10.57;7.93;;;;;;;;;;5087265;28;20005;-76
2021/05/03 02:57:45;;;;;;;8.13;7.25;;;;;;;;;;5082479;28;20058;-77
2021/05/03 03:00:13;;;;;;;10.23;8.20;;;;;;;;;;5078306;28;20067;-77
2021/05/03 03:02:39;;;;;;;10.32;9.25;;;;;;;;;;5077585;28;20025;-76
2021/05/03 03:05:05;;;;;;;8.80;7.47;;;;;;;;;;5078083;28;20021;-76
2021/05/03 03:07:31;;;;;;;10.68;8.15;;;;;;;;;;5077736;28;20090;-76
2021/05/03 03:09:58;;;;;;;9.00;7.88;;;;;;;;;;5078337;28;20045;-79
2021/05/03 03:12:24;;;;;;;9.38;8.38;;;;;;;;;;5077690;28;20037;-78
2021/05/03 03:14:50;;;;;;;13.05;8.60;;;;;;;;;;5078252;28;20040;-76
2021/05/03 03:17:16;;;;;;;10.57;8.43;;;;;;;;;;5078031;28;20075;-78
2021/05/03 03:19:42;;;;;;;8.55;6.75;;;;;;;;;;5078179;28;20028;-76
2021/05/03 03:22:09;;;;;;;13.13;10.65;;;;;;;;;;5077791;28;20024;-77
2021/05/03 03:24:35;;;;;;;9.70;8.30;;;;;;;;;;5067367;28;20461;-77
2021/05/03 03:27:02;;;;;;;10.00;8.70;;;;;;;;;;5070053;28;20044;-78
2021/05/03 03:29:28;;;;;;;6.93;6.22;;;;;;;;;;5059395;28;20108;-77
2021/05/03 03:31:54;;;;;;;10.88;7.65;;;;;;;;;;5054318;28;20124;-77
2021/05/03 03:34:20;;;;;;;8.80;6.88;;;;;;;;;;5062134;28;20025;-77
2021/05/03 03:36:47;;;;;;;9.10;7.93;;;;;;;;;;5068690;28;20139;-76
2021/05/03 03:39:13;;;;;;;7.25;6.50;;;;;;;;;;5061648;28;20085;-77
2021/05/03 03:41:40;;;;;;;7.60;6.25;;;;;;;;;;5059360;28;20029;-77
2021/05/03 03:44:06;;;;;;;7.18;5.20;;;;;;;;;;5059214;28;20025;-77
2021/05/03 03:46:32;;;;;;;7.25;5.53;;;;;;;;;;5058153;28;20742;-77
2021/05/03 03:48:58;;;;;;;6.72;5.43;;;;;;;;;;5057617;28;20061;-76
2021/05/03 03:51:25;;;;;;;6.72;5.25;;;;;;;;;;5057191;28;20128;-77
2021/05/03 03:53:52;;;;;;;7.20;6.20;;;;;;;;;;5051772;28;20084;-77
2021/05/03 03:56:19;;;;;;;10.20;7.30;;;;;;;;;;5066698;28;20028;-77
2021/05/03 03:58:45;;;;;;;9.63;8.20;;;;;;;;;;5057890;28;20013;-77
2021/05/03 04:01:12;;;;;;;8.40;6.95;;;;;;;;;;5056797;28;20029;-77
2021/05/03 04:03:49;;;;;;;9.15;7.07;;;;;;;;;;5057809;28;20036;-77
2021/05/03 04:06:28;;;;;;;9.88;8.02;;;;;;;;;;5062332;28;20051;-77
2021/05/03 04:27:18;;;;;;;8.30;6.60;;;;;;;;;;5079421;28;20028;-76
2021/05/03 04:29:44;;;;;;;11.70;8.80;;;;;;;;;;5075652;28;20033;-78
2021/05/03 04:32:10;;;;;;;9.55;7.25;;;;;;;;;;5061931;28;20039;-78
2021/05/03 04:34:36;;;;;;;9.15;7.63;;;;;;;;;;5060782;28;20087;-77
2021/05/03 04:37:02;;;;;;;7.60;6.05;;;;;;;;;;5060423;28;20017;-76
2021/05/03 04:39:30;;;;;;;7.10;5.53;;;;;;;;;;5060120;28;20021;-78
2021/05/03 04:41:56;;;;;;;10.93;8.40;;;;;;;;;;5060219;28;20017;-76
2021/05/03 04:44:22;;;;;;;7.75;6.88;;;;;;;;;;5071555;28;20055;-76
2021/05/03 04:46:48;;;;;;;6.80;6.10;;;;;;;;;;5059421;28;20024;-76
2021/05/03 04:49:14;;;;;;;9.43;6.63;;;;;;;;;;5061987;28;20038;-78
2021/05/03 04:51:40;;;;;;;6.45;5.53;;;;;;;;;;5058268;28;20500;-78
2021/05/03 04:54:06;;;;;;;8.65;6.57;;;;;;;;;;5058353;28;20033;-77
2021/05/03 04:56:32;;;;;;;8.27;6.70;;;;;;;;;;5069114;28;20021;-79
2021/05/03 04:58:58;;;;;;;5.45;4.95;;;;;;;;;;5061139;28;20445;-79
2021/05/03 05:01:24;;;;;;;7.78;5.80;;;;;;;;;;5059537;28;20035;-78
2021/05/03 05:03:50;;;;;;;9.68;7.55;;;;;;;;;;5070065;28;20017;-77
2021/05/03 05:06:16;;;;;;;7.82;6.05;;;;;;;;;;5068096;28;20347;-77
2021/05/03 05:08:43;;;;;;;7.05;5.60;;;;;;;;;;5060502;28;20021;-77
2021/05/03 05:11:09;;;;;;;6.40;5.80;;;;;;;;;;5060831;28;20039;-77
2021/05/03 05:13:35;;;;;;;6.47;5.70;;;;;;;;;;5086209;28;20024;-77
2021/05/03 05:16:01;;;;;;;8.45;7.00;;;;;;;;;;5085341;28;20028;-77
2021/05/03 05:18:27;;;;;;;8.90;6.85;;;;;;;;;;5081240;28;20028;-77
2021/05/03 05:20:53;;;;;;;7.63;6.82;;;;;;;;;;5062853;28;20033;-77
2021/05/03 05:23:19;;;;;;;7.90;6.38;;;;;;;;;;5061841;28;20029;-77
2021/05/03 05:25:45;;;;;;;6.63;5.72;;;;;;;;;;5070282;28;20057;-77
2021/05/03 05:28:11;;;;;;;7.55;6.40;;;;;;;;;;5065132;28;20059;-77
2021/05/03 05:30:37;;;;;;;8.48;6.53;;;;;;;;;;5057896;28;20075;-77
2021/05/03 05:33:03;;;;;;;8.40;7.03;;;;;;;;;;5055536;28;20035;-77
2021/05/03 05:35:29;;;;;;;6.53;5.82;;;;;;;;;;5056145;28;20028;-77
2021/05/03 05:37:55;;;;;;;7.63;6.93;;;;;;;;;;5058539;28;20029;-78
2021/05/03 05:40:22;;;;;;;6.60;5.90;;;;;;;;;;5058498;28;20024;-77
2021/05/03 05:42:48;;;;;;;6.38;5.68;;;;;;;;;;5062902;28;20033;-78
2021/05/03 05:45:16;;;;;;;7.13;6.43;;;;;;;;;;5062908;28;20029;-78
2021/05/03 05:47:42;;;;;;;6.30;5.68;;;;;;;;;;5064575;28;20032;-78
2021/05/03 05:50:08;;;;;;;7.28;6.00;;;;;;;;;;5074252;28;20115;-77
2021/05/03 05:52:34;;;;;;;7.38;6.55;;;;;;;;;;5084358;28;20032;-78
2021/05/03 05:55:00;;;;;;;10.35;6.30;;;;;;;;;;5064143;28;20036;-77
2021/05/03 05:57:26;;;;;;;8.45;5.80;;;;;;;;;;5072285;28;20062;-78
2021/05/03 05:59:52;;;;;;;8.68;6.93;;;;;;;;;;5070566;28;20130;-78
2021/05/03 06:02:19;;;;;;;8.88;6.90;;;;;;;;;;5055451;28;20035;-77
2021/05/03 06:04:45;;;;;;;10.15;6.07;;;;;;;;;;5056636;28;20033;-78
2021/05/03 06:07:11;;;;;;;5.13;4.30;;;;;;;;;;5058177;28;20047;-78
2021/05/03 06:09:37;;;;;;;6.82;4.68;;;;;;;;;;5058365;28;20025;-77
2021/05/03 06:12:03;;;;;;;8.30;5.85;;;;;;;;;;5056406;28;20025;-77
2021/05/03 06:14:29;;;;;;;5.40;4.90;;;;;;;;;;5058780;28;20067;-77
2021/05/03 06:16:55;;;;;;;8.30;5.43;;;;;;;;;;5058561;28;20478;-77
2021/05/03 06:19:21;;;;;;;6.40;5.20;;;;;;;;;;5058857;28;20474;-77
2021/05/03 06:21:47;;;;;;;4.63;4.00;;;;;;;;;;5060226;28;20094;-77
2021/05/03 06:24:13;;;;;;;5.57;4.35;;;;;;;;;;5059718;28;20033;-77
2021/05/03 06:26:39;;;;;;;4.32;3.70;;;;;;;;;;5061728;28;20067;-77
2021/05/03 06:29:05;;;;;;;3.55;2.63;;;;;;;;;;5072189;28;20047;-76
2021/05/03 06:31:32;;;;;;;3.83;3.28;;;;;;;;;;5080063;28;20036;-76
2021/05/03 06:33:58;;;;;;;6.65;5.95;;;;;;;;;;5073925;28;20029;-77
2021/05/03 06:36:24;;;;;;;4.93;4.28;;;;;;;;;;5088567;28;20032;-77
2021/05/03 06:38:51;;;;;;;2.88;2.67;;;;;;;;;;5097049;28;20028;-77
2021/05/03 06:41:18;;;;;;;8.52;4.88;;;;;;;;;;5097547;28;20036;-77
2021/05/03 06:43:44;;;;;;;5.40;4.57;;;;;;;;;;5097239;28;20051;-77
2021/05/03 06:46:10;;;;;;;6.85;5.15;;;;;;;;;;5078199;28;20028;-77
2021/05/03 06:48:36;;;;;;;5.57;4.90;;;;;;;;;;5076750;28;20063;-77
2021/05/03 06:51:03;;;;;;;7.68;6.05;;;;;;;;;;5078334;28;20036;-77
2021/05/03 06:53:29;;;;;;;8.65;6.03;;;;;;;;;;5077859;28;20053;-76
2021/05/03 06:55:55;;;;;;;6.60;5.32;;;;;;;;;;5090338;28;20037;-77
2021/05/03 06:58:21;;;;;;;8.32;6.60;;;;;;;;;;5087434;28;20039;-77
2021/05/03 07:00:47;;;;;;;6.15;5.38;;;;;;;;;;5075787;28;20025;-77
2021/05/03 07:03:13;;;;;;;6.55;5.70;;;;;;;;;;5073602;28;20029;-77
2021/05/03 07:05:40;;;;;;;8.60;6.70;;;;;;;;;;5075013;28;20029;-77
2021/05/03 07:08:12;;;;;;;7.13;5.75;;;;;;;;;;5068260;28;20394;-77
2021/05/03 07:10:41;;;;;;;10.17;7.23;;;;;;;;;;5075507;28;20032;-77
2021/05/03 07:13:08;;;;;;;9.50;7.35;;;;;;;;;;5077749;28;20294;-77
2021/05/03 07:15:34;;;;;;;8.00;6.25;;;;;;;;;;5076223;28;20055;-77
2021/05/03 07:18:00;;;;;;;8.13;6.03;;;;;;;;;;5072361;28;20051;-79
2021/05/03 07:20:27;;;;;;;8.38;7.03;;;;;;;;;;5069847;28;20031;-79
2021/05/03 07:22:53;;;;;;;13.00;7.30;;;;;;;;;;5068253;28;20028;-78
2021/05/03 07:25:19;;;;;;;9.10;7.10;;;;;;;;;;5074365;28;20032;-78
2021/05/03 07:27:45;;;;;;;9.60;6.63;;;;;;;;;;5082773;28;20095;-79
2021/05/03 07:30:12;;;;;;;7.90;6.55;;;;;;;;;;5086775;28;20111;-79
2021/05/03 07:32:39;;;;;;;11.43;6.03;;;;;;;;;;5071635;28;20040;-78
2021/05/03 07:35:06;;;;;;;9.20;7.75;;;;;;;;;;5069604;28;20092;-79
2021/05/03 07:37:32;;;;;;;8.30;5.95;;;;;;;;;;5062701;28;20025;-78
2021/05/03 07:39:58;;;;;;;5.50;4.95;;;;;;;;;;5064861;28;20031;-78
2021/05/03 07:42:25;;;;;;;10.70;6.07;;;;;;;;;;5069267;28;20021;-77
2021/05/03 07:44:51;;;;;;;7.15;6.20;;;;;;;;;;5071522;28;20025;-77
2021/05/03 07:47:17;;;;;;;6.75;5.63;;;;;;;;;;5063201;28;20382;-78
2021/05/03 07:49:44;;;;;;;6.15;5.30;;;;;;;;;;5064272;28;20442;-78
2021/05/03 07:52:10;;;;;;;7.22;6.40;;;;;;;;;;5063084;28;20025;-78
2021/05/03 07:54:36;;;;;;;7.05;5.35;;;;;;;;;;5066298;28;20033;-78
2021/05/03 07:57:02;;;;;;;8.27;6.57;;;;;;;;;;5073911;28;20044;-79
2021/05/03 07:59:28;;;;;;;7.75;5.32;;;;;;;;;;5063402;28;20052;-78
2021/05/03 08:01:55;;;;;;;9.98;6.72;;;;;;;;;;5063028;28;20114;-78
2021/05/03 08:04:21;;;;;;;7.00;5.60;;;;;;;;;;5074992;28;20032;-78
2021/05/03 08:06:48;;;;;;;5.68;5.07;;;;;;;;;;5061239;28;20123;-78
2021/05/03 08:09:14;;;;;;;6.13;4.78;;;;;;;;;;5061469;28;20048;-78
2021/05/03 08:11:45;;;;;;;5.28;4.78;;;;;;;;;;5059991;28;20037;-78
2021/05/03 08:14:14;;;;;;;6.32;5.15;;;;;;;;;;5062052;28;20029;-79
2021/05/03 08:16:41;;;;;;;6.65;4.32;;;;;;;;;;5062977;28;20081;-78
2021/05/03 08:19:07;;;;;;;7.05;5.30;;;;;;;;;;5061071;28;20021;-75
2021/05/03 08:21:33;;;;;;;5.47;4.38;;;;;;;;;;5059884;28;20625;-77
2021/05/03 08:23:59;;;;;;;6.13;5.45;;;;;;;;;;5069400;28;20013;-74
2021/05/03 08:26:25;;;;;;;6.05;5.18;;;;;;;;;;5081328;28;20036;-76
2021/05/03 08:28:51;;;;;;;4.72;4.28;;;;;;;;;;5079638;28;20168;-75
2021/05/03 08:31:17;;;;;;;6.28;5.00;;;;;;;;;;5082929;28;20027;-77
2021/05/03 08:33:43;;;;;;;7.60;4.88;;;;;;;;;;5064249;28;20028;-77
2021/05/03 08:36:09;;;;;;;6.35;4.80;;;;;;;;;;5077123;28;20072;-76
2021/05/03 08:38:36;;;;;;;7.97;5.32;;;;;;;;;;5069778;28;20051;-76
2021/05/03 08:41:03;;;;;;;8.80;4.95;;;;;;;;;;5065210;28;20032;-77
2021/05/03 08:43:31;;;;;;;5.38;4.88;;;;;;;;;;5059118;28;20025;-78
2021/05/03 08:45:57;;;;;;;6.03;4.72;;;;;;;;;;5060023;28;20263;-78
2021/05/03 08:48:33;;;;;;;4.47;4.03;;;;;;;;;;5057363;28;20025;-77
2021/05/03 08:51:11;;;;;;;4.75;4.25;;;;;;;;;;5057156;28;20028;-77
2021/05/03 08:53:41;;;;;;;8.50;6.20;;;;;;;;;;5057081;28;20040;-76
2021/05/03 08:56:07;;;;;;;5.93;4.38;;;;;;;;;;5066257;28;20032;-77
2021/05/03 08:58:36;;;;;;;4.97;4.07;;;;;;;;;;5057027;28;20485;-77
2021/05/03 09:01:02;;;;;;;5.05;3.70;;;;;;;;;;5056146;28;20060;-75
2021/05/03 09:03:28;;;;;;;7.00;4.47;;;;;;;;;;5060864;28;20048;-77
2021/05/03 09:05:55;;;;;;;6.88;4.60;;;;;;;;;;5068874;28;20078;-77
2021/05/03 09:08:25;;;;;;;4.65;4.15;;;;;;;;;;5060186;28;20036;-78
2021/05/03 09:10:52;;;;;;;4.13;3.63;;;;;;;;;;5059135;28;20441;-79
2021/05/03 09:13:25;;;;;;;4.75;3.20;;;;;;;;;;5057772;28;20032;-78
2021/05/03 09:15:51;;;;;;;3.28;3.00;;;;;;;;;;5060967;28;20025;-77
2021/05/03 09:18:17;;;;;;;6.72;3.90;;;;;;;;;;5064919;28;20019;-77
2021/05/03 09:20:44;;;;;;;4.97;2.95;;;;;;;;;;5060743;28;20036;-78
2021/05/03 09:23:22;;;;;;;5.43;4.90;;;;;;;;;;5059492;28;20082;-77
2021/05/03 09:25:52;;;;;;;4.53;3.83;;;;;;;;;;5081932;28;20059;-77
2021/05/03 09:28:26;;;;;;;7.93;3.90;;;;;;;;;;5087222;28;20027;-76
2021/05/03 09:30:55;;;;;;;5.68;4.07;;;;;;;;;;5067826;28;20032;-76
2021/05/03 09:33:21;;;;;;;5.85;3.60;;;;;;;;;;5069266;22;20094;-73
2021/05/03 09:35:57;;;;;;;10.30;4.03;;;;;;;;;;5031902;28;20072;-73
2021/05/03 09:38:27;;;;;;;5.28;3.22;;;;;;;;;;5013689;28;20046;-74
2021/05/03 09:41:06;;;;;;;4.45;3.65;;;;;;;;;;5015086;28;20022;-73
2021/05/03 09:43:33;;;;;;;7.20;3.42;;;;;;;;;;5020817;28;20033;-73
2021/05/03 09:45:59;;;;;;;7.90;3.67;;;;;;;;;;5015973;28;20049;-75
2021/05/03 09:48:26;;;;;;;5.28;3.38;;;;;;;;;;5017374;28;20034;-74
2021/05/03 09:50:52;;;;;;;7.13;3.65;;;;;;;;;;5021713;28;20072;-73
2021/05/03 09:53:18;;;;;;;4.32;3.65;;;;;;;;;;5019662;28;20105;-74
2021/05/03 09:55:54;;;;;;;5.22;4.35;;;;;;;;;;5014811;28;20026;-74
2021/05/03 09:58:24;;;;;;;5.43;2.95;;;;;;;;;;5013286;28;20026;-74
2021/05/03 10:00:50;;;;;;;4.55;3.28;;;;;;;;;;5012386;28;20030;-74
2021/05/03 10:03:33;;;;;;;5.10;3.88;;;;;;;;;;5011780;28;20037;-73
2021/05/03 10:06:00;;;;;;;3.63;2.95;;;;;;;;;;5025379;28;20481;-74
2021/05/03 10:08:27;;;;;;;4.22;3.30;;;;;;;;;;5012333;28;20049;-74
2021/05/03 10:10:56;;;;;;;2.53;2.33;;;;;;;;;;5012298;28;20511;-74
2021/05/03 10:13:23;;;;;;;2.92;2.15;;;;;;;;;;5011533;28;20367;-75
2021/05/03 10:15:49;;;;;;;2.65;2.42;;;;;;;;;;5012754;28;20030;-75
2021/05/03 10:18:18;;;;;;;8.70;2.42;;;;;;;;;;5012906;28;20018;-74
2021/05/03 10:20:46;;;;;;;5.13;2.72;;;;;;;;;;5012403;28;20014;-74
2021/05/03 10:23:12;;;;;;;3.38;2.78;;;;;;;;;;5011716;28;20051;-74
2021/05/03 10:25:39;;;;;;;5.82;3.58;;;;;;;;;;5013484;28;20021;-74
2021/05/03 10:28:05;;;;;;;5.82;3.45;;;;;;;;;;5013545;28;20200;-78
2021/05/03 10:30:32;;;;;;;3.00;2.60;;;;;;;;;;5012625;28;20033;-76
2021/05/03 10:33:05;;;;;;;4.53;3.75;;;;;;;;;;5011850;28;20385;-76
2021/05/03 10:35:32;;;;;;;6.10;4.15;;;;;;;;;;5011554;28;20072;-75
2021/05/03 10:37:59;;;;;;;3.63;3.25;;;;;;;;;;5029125;28;20049;-75
2021/05/03 10:40:26;;;;;;;3.63;3.00;;;;;;;;;;5032561;28;20025;-74
2021/05/03 10:43:06;;;;;;;4.38;3.42;;;;;;;;;;5027681;28;20026;-76
2021/05/03 10:48:58;;;;;;;5.20;3.55;;;;;;;;;;5013747;28;20081;-77
2021/05/03 10:51:29;;;;;;;9.20;4.20;;;;;;;;;;5012273;28;20053;-77
2021/05/03 10:53:56;;;;;;;4.55;4.05;;;;;;;;;;5013687;28;20037;-76
2021/05/03 10:56:41;;;;;;;6.15;3.67;;;;;;;;;;5012816;28;20022;-74
2021/05/03 10:59:08;;;;;;;2.97;2.35;;;;;;;;;;5013701;28;20021;-74
2021/05/03 11:01:53;;;;;;;3.65;3.30;;;;;;;;;;5013505;28;20026;-75
2021/05/03 11:04:19;;;;;;;3.70;3.40;;;;;;;;;;5018381;28;20029;-75
2021/05/03 11:06:48;;;;;;;4.78;3.55;;;;;;;;;;5022629;28;20057;-75
2021/05/03 11:09:42;;;;;;;3.90;3.33;;;;;;;;;;5016189;28;20029;-75
2021/05/03 11:12:14;;;;;;;2.83;2.58;;;;;;;;;;5022644;28;20065;-75
2021/05/03 11:15:00;;;;;;;4.45;3.30;;;;;;;;;;5023557;28;20029;-74
2021/05/03 11:17:26;;;;;;;5.22;4.07;;;;;;;;;;5017963;28;20449;-74
2021/05/03 11:22:27;;;;;;;3.65;3.35;;;;;;;;;;5015313;28;20049;-74
2021/05/03 11:25:00;;;;;;;4.85;3.53;;;;;;;;;;5015231;28;20033;-76
2021/05/03 11:30:36;;;;;;;4.15;3.58;;;;;;;;;;5015083;28;20045;-75
2021/05/03 11:33:09;;;;;;;4.90;3.65;;;;;;;;;;5015722;28;20502;-76
2021/05/03 11:35:45;;;;;;;3.35;3.00;;;;;;;;;;5022440;28;20067;-74
2021/05/03 11:38:39;;;;;;;5.07;4.32;;;;;;;;;;5016094;28;20536;-74
2021/05/03 11:46:08;;;;;;;6.50;3.65;;;;;;;;;;5034972;28;20509;-74
2021/05/03 11:48:35;;;;;;;3.90;2.90;;;;;;;;;;5033564;28;20022;-75
2021/05/03 11:51:08;;;;;;;5.68;4.47;;;;;;;;;;5034743;28;20026;-75
2021/05/03 11:53:40;;;;;;;2.90;2.60;;;;;;;;;;5028330;28;20080;-74
2021/05/03 11:56:23;;;;;;;4.15;3.75;;;;;;;;;;5015080;28;20178;-75
2021/05/03 11:59:15;;;;;;;6.32;3.33;;;;;;;;;;5014811;28;20479;-74
2021/05/03 12:01:41;;;;;;;6.05;3.53;;;;;;;;;;5012810;28;20029;-73
2021/05/03 12:04:07;;;;;;;3.33;2.92;;;;;;;;;;5014195;28;20026;-74
2021/05/03 12:06:34;;;;;;;5.97;2.90;;;;;;;;;;5016623;28;20022;-73
2021/05/03 12:09:01;;;;;;;8.70;4.72;;;;;;;;;;5014237;28;20387;-75
2021/05/03 12:11:27;;;;;;;2.72;2.53;;;;;;;;;;5013907;28;20026;-75
2021/05/03 12:13:57;;;;;;;2.65;2.08;;;;;;;;;;5020588;28;20091;-74
2021/05/03 12:16:37;;;;;;;2.70;2.50;;;;;;;;;;5012733;28;20018;-75
2021/05/03 12:19:10;;;;;;;4.63;2.85;;;;;;;;;;5014034;28;20160;-74
2021/05/03 12:21:36;;;;;;;2.47;2.25;;;;;;;;;;5014081;28;20088;-74
2021/05/03 12:24:19;;;;;;;2.58;2.38;;;;;;;;;;5013737;28;20458;-74
2021/05/03 12:26:59;;;;;;;2.78;2.17;;;;;;;;;;5014360;28;20030;-74
2021/05/03 12:29:25;;;;;;;3.40;3.10;;;;;;;;;;5013430;28;20033;-75
2021/05/03 12:31:52;;;;;;;3.35;2.20;;;;;;;;;;5013106;28;20030;-74
2021/05/03 12:34:22;;;;;;;4.03;2.30;;;;;;;;;;5014711;28;20037;-74
2021/05/03 12:37:07;;;;;;;3.85;2.42;;;;;;;;;;5020250;28;20056;-75
2021/05/03 12:39:37;;;;;;;2.22;2.05;;;;;;;;;;5013745;28;20026;-75
2021/05/03 12:42:17;;;;;;;1.98;1.80;;;;;;;;;;5013023;28;20026;-75
2021/05/03 12:44:50;;;;;;;2.72;2.53;;;;;;;;;;5020856;28;20090;-74
2021/05/03 12:47:18;;;;;;;1.60;1.50;;;;;;;;;;5012730;28;20034;-75
2021/05/03 12:49:53;;;;;;;1.60;1.50;;;;;;;;;;5012374;28;20022;-75
2021/05/03 12:52:33;;;;;;;1.52;1.42;;;;;;;;;;5013508;28;20022;-75
2021/05/03 12:55:06;;;;;;;1.75;1.65;;;;;;;;;;5012812;28;20056;-75
2021/05/03 12:57:44;;;;;;;1.83;1.70;;;;;;;;;;5013729;28;20036;-75
2021/05/03 13:00:13;;;;;;;2.90;2.70;;;;;;;;;;5011957;28;20026;-75
2021/05/03 13:02:52;;;;;;;3.22;2.47;;;;;;;;;;5012759;28;20438;-74
2021/05/03 13:05:22;;;;;;;2.92;2.63;;;;;;;;;;5020145;28;20022;-75
2021/05/03 13:09:00;;;;;;;2.55;1.90;;;;;;;;;;5022403;28;20397;-75
2021/05/03 13:11:39;;;;;;;2.75;2.50;;;;;;;;;;5003456;28;20030;-74
2021/05/03 13:25:31;;;;;;;2.55;2.13;;;;;;;;;;5013664;28;20390;-75
2021/05/03 13:28:07;;;;;;;5.90;2.70;;;;;;;;;;5012696;28;20026;-74
2021/05/03 13:30:37;;;;;;;2.47;1.60;;;;;;;;;;5013126;28;20045;-74
2021/05/03 13:33:04;;;;;;;1.95;1.80;;;;;;;;;;5012259;28;20049;-75
2021/05/03 13:35:31;;;;;;;3.92;1.83;;;;;;;;;;5018989;28;20017;-75
2021/05/03 13:37:57;;;;;;;2.67;1.60;;;;;;;;;;5015565;28;20022;-74
2021/05/03 13:40:23;;;;;;;2.00;1.70;;;;;;;;;;5012318;28;20022;-74
2021/05/03 13:42:52;;;;;;;2.47;2.20;;;;;;;;;;5019872;28;20018;-75
2021/05/03 13:45:19;;;;;;;3.00;2.63;;;;;;;;;;5019237;28;20018;-74
2021/05/03 13:47:46;;;;;;;2.40;1.27;;;;;;;;;;5018776;28;20028;-75
2021/05/03 13:50:12;;;;;;;3.72;1.45;;;;;;;;;;5014162;28;20022;-75
2021/05/03 13:52:38;;;;;;;5.25;1.77;;;;;;;;;;5027285;28;20048;-76
2021/05/03 13:55:05;;;;;;;3.42;1.88;;;;;;;;;;5024966;28;20092;-75
2021/05/03 13:57:31;;;;;;;1.23;1.13;;;;;;;;;;5023240;28;20037;-75
2021/05/03 13:59:57;;;;;;;2.08;1.80;;;;;;;;;;5013777;28;20022;-75
2021/05/03 14:02:23;;;;;;;2.17;1.98;;;;;;;;;;5011688;28;20037;-76
2021/05/03 14:04:49;;;;;;;5.80;3.33;;;;;;;;;;5020223;28;20155;-75
2021/05/03 14:07:15;;;;;;;4.53;3.08;;;;;;;;;;5022883;28;20033;-75
2021/05/03 14:09:42;;;;;;;3.28;2.92;;;;;;;;;;5013021;28;20037;-75
2021/05/03 14:12:08;;;;;;;6.60;3.47;;;;;;;;;;5012543;28;20061;-75
2021/05/03 14:14:35;;;;;;;3.30;2.97;;;;;;;;;;5012229;28;20037;-75
2021/05/03 14:17:05;;;;;;;2.88;2.55;;;;;;;;;;5012595;28;20190;-75
2021/05/03 14:19:35;;;;;;;3.88;2.10;;;;;;;;;;5012667;28;20062;-75
2021/05/03 14:22:01;;;;;;;4.28;2.67;;;;;;;;;;5011133;28;20029;-75
2021/05/03 14:24:27;;;;;;;2.70;1.80;;;;;;;;;;5012216;28;20033;-74
2021/05/03 14:26:55;;;;;;;2.92;2.53;;;;;;;;;;5011089;28;20049;-75
2021/05/03 14:29:38;;;;;;;2.83;2.15;;;;;;;;;;5013079;28;20026;-74
2021/05/03 14:32:21;;;;;;;3.55;2.50;;;;;;;;;;5029716;28;20026;-74
2021/05/03 14:34:53;;;;;;;5.68;3.00;;;;;;;;;;5020260;28;20105;-75
2021/05/03 14:37:20;;;;;;;3.47;3.17;;;;;;;;;;5021400;28;20022;-75
2021/05/03 14:39:46;;;;;;;2.90;2.70;;;;;;;;;;5037446;28;20025;-74
2021/05/03 14:42:12;;;;;;;2.70;2.50;;;;;;;;;;5037056;28;20036;-75
2021/05/03 14:44:38;;;;;;;2.75;2.42;;;;;;;;;;5036114;28;20038;-74
2021/05/03 14:47:08;;;;;;;3.15;1.92;;;;;;;;;;5017831;28;20026;-74
2021/05/03 14:50:18;;;;;;;5.20;2.30;;;;;;;;;;5017478;28;20030;-74
2021/05/03 14:55:09;;;;;;;2.67;2.10;;;;;;;;;;4995020;28;20044;-76
2021/05/03 14:57:35;;;;;;;1.90;1.73;;;;;;;;;;5016070;28;20026;-75
2021/05/03 15:00:02;;;;;;;1.77;1.67;;;;;;;;;;5016975;28;20025;-75
2021/05/03 15:02:28;;;;;;;5.55;2.67;;;;;;;;;;5016553;28;20478;-75
2021/05/03 15:04:54;;;;;;;1.77;1.63;;;;;;;;;;5014896;28;20455;-76
2021/05/03 15:07:20;;;;;;;2.70;1.70;;;;;;;;;;5024260;28;20022;-74
2021/05/03 15:09:49;;;;;;;3.28;1.90;;;;;;;;;;5016344;28;20429;-75
2021/05/03 15:12:20;;;;;;;2.10;2.00;;;;;;;;;;5014936;28;20045;-75
2021/05/03 15:19:49;;;;;;;1.73;1.63;;;;;;;;;;5028445;28;19909;-75
2021/05/03 15:22:15;;;;;;;2.38;1.77;;;;;;;;;;5026243;28;20018;-77
2021/05/03 15:24:41;;;;;;;3.65;1.70;;;;;;;;;;5025432;28;20030;-76
2021/05/03 15:30:17;;;;;;;2.63;1.38;;;;;;;;;;5018014;28;20087;-75
2021/05/03 15:35:28;;;;;;;2.40;1.90;;;;;;;;;;5066145;22;20056;-78
2021/05/03 15:37:54;;;;;;;5.63;1.67;;;;;;;;;;5030035;28;20025;-76
2021/05/03 15:40:21;;;;;;;2.65;1.85;;;;;;;;;;5026800;28;20033;-76
2021/05/03 15:42:48;;;;;;;2.45;1.60;;;;;;;;;;5044388;28;20036;-76
2021/05/03 15:45:15;;;;;;;2.50;2.10;;;;;;;;;;5021304;28;20026;-77
2021/05/03 15:47:42;;;;;;;6.20;2.28;;;;;;;;;;5004885;28;20117;-77